sensor_id;sensor_type;location;lat;lon;timestamp;pressure;altitude;pressure_sealevel;temperature;humidity
10940;BME280;5522;42.696;23.494;2023-06-14T00:01:20;53998.56;;;-139.68;100.00
10940;BME280;5522;42.696;23.494;2023-06-14T00:03:48;53980.47;;;-139.68;100.00
10940;BME280;5522;42.696;23.494;2023-06-14T00:06:15;53996.53;;;-139.68;100.00
10940;BME280;5522;42.696;23.494;2023-06-14T00:08:43;53980.47;;;-139.68;100.00
10940;BME280;5522;42.696;23.494;2023-06-14T00:11:10;53964.38;;;-139.68;100.00
10940;BME280;5522;42.696;23.494;2023-06-14T00:13:37;54004.59;;;-139.68;100.00
10940;BME280;5522;42.696;23.494;2023-06-14T00:16:04;54000.56;;;-139.68;100.00
10940;BME280;5522;42.696;23.494;2023-06-14T00:18:30;53980.47;;;-139.68;100.00
10940;BME280;5522;42.696;23.494;2023-06-14T00:20:59;53996.53;;;-139.68;100.00
10940;BME280;5522;42.696;23.494;2023-06-14T00:23:27;53978.47;;;-139.68;100.00
10940;BME280;5522;42.696;23.494;2023-06-14T00:25:54;53966.38;;;-139.68;100.00
10940;BME280;5522;42.696;23.494;2023-06-14T00:28:21;53982.47;;;-139.68;100.00
10940;BME280;5522;42.696;23.494;2023-06-14T00:30:47;53956.34;;;-139.68;100.00
10940;BME280;5522;42.696;23.494;2023-06-14T00:33:14;53974.44;;;-139.68;100.00
10940;BME280;5522;42.696;23.494;2023-06-14T00:35:41;54012.63;;;-139.68;100.00
10940;BME280;5522;42.696;23.494;2023-06-14T00:38:09;53996.53;;;-139.68;100.00
10940;BME280;5522;42.696;23.494;2023-06-14T00:40:36;53950.31;;;-139.68;100.00
10940;BME280;5522;42.696;23.494;2023-06-14T00:43:03;53986.50;;;-139.68;100.00
10940;BME280;5522;42.696;23.494;2023-06-14T00:45:30;54016.66;;;-139.68;100.00
10940;BME280;5522;42.696;23.494;2023-06-14T00:48:01;53988.50;;;-139.68;100.00
10940;BME280;5522;42.696;23.494;2023-06-14T00:50:28;54006.59;;;-139.68;100.00
10940;BME280;5522;42.696;23.494;2023-06-14T00:52:57;54004.59;;;-139.68;100.00
10940;BME280;5522;42.696;23.494;2023-06-14T00:55:26;53968.41;;;-139.68;100.00
10940;BME280;5522;42.696;23.494;2023-06-14T00:57:54;53974.44;;;-139.68;100.00
10940;BME280;5522;42.696;23.494;2023-06-14T01:08:44;53988.50;;;-139.68;100.00
10940;BME280;5522;42.696;23.494;2023-06-14T01:11:18;53990.50;;;-139.68;100.00
10940;BME280;5522;42.696;23.494;2023-06-14T01:13:49;53992.53;;;-139.68;100.00
10940;BME280;5522;42.696;23.494;2023-06-14T01:16:17;53972.41;;;-139.68;100.00
10940;BME280;5522;42.696;23.494;2023-06-14T01:18:45;53988.50;;;-139.68;100.00
10940;BME280;5522;42.696;23.494;2023-06-14T01:21:21;54008.63;;;-139.68;100.00
10940;BME280;5522;42.696;23.494;2023-06-14T01:23:50;54012.63;;;-139.68;100.00
10940;BME280;5522;42.696;23.494;2023-06-14T01:26:19;54004.59;;;-139.68;100.00
10940;BME280;5522;42.696;23.494;2023-06-14T01:28:46;53984.47;;;-139.68;100.00
10940;BME280;5522;42.696;23.494;2023-06-14T01:31:18;53984.47;;;-139.68;100.00
10940;BME280;5522;42.696;23.494;2023-06-14T01:33:48;53982.47;;;-139.68;100.00
10940;BME280;5522;42.696;23.494;2023-06-14T01:36:16;53988.50;;;-139.68;100.00
10940;BME280;5522;42.696;23.494;2023-06-14T01:38:44;54008.63;;;-139.68;100.00
10940;BME280;5522;42.696;23.494;2023-06-14T01:41:13;53940.25;;;-139.68;100.00
10940;BME280;5522;42.696;23.494;2023-06-14T01:43:41;53974.44;;;-139.68;100.00
10940;BME280;5522;42.696;23.494;2023-06-14T01:46:09;53996.53;;;-139.68;100.00
10940;BME280;5522;42.696;23.494;2023-06-14T01:48:37;53986.50;;;-139.68;100.00
10940;BME280;5522;42.696;23.494;2023-06-14T01:51:04;53932.22;;;-139.68;100.00
10940;BME280;5522;42.696;23.494;2023-06-14T01:53:31;53974.44;;;-139.68;100.00
10940;BME280;5522;42.696;23.494;2023-06-14T01:55:58;53968.41;;;-139.68;100.00
10940;BME280;5522;42.696;23.494;2023-06-14T01:58:26;54004.59;;;-139.68;100.00
10940;BME280;5522;42.696;23.494;2023-06-14T02:00:54;53964.38;;;-139.68;100.00
10940;BME280;5522;42.696;23.494;2023-06-14T02:03:22;53996.53;;;-139.68;100.00
10940;BME280;5522;42.696;23.494;2023-06-14T02:05:49;53994.53;;;-139.68;100.00
10940;BME280;5522;42.696;23.494;2023-06-14T02:08:16;54020.66;;;-139.68;100.00
10940;BME280;5522;42.696;23.494;2023-06-14T02:10:43;53970.41;;;-139.68;100.00
10940;BME280;5522;42.696;23.494;2023-06-14T02:13:10;54006.59;;;-139.68;100.00
10940;BME280;5522;42.696;23.494;2023-06-14T02:15:38;53970.41;;;-139.68;100.00
10940;BME280;5522;42.696;23.494;2023-06-14T02:18:05;53988.50;;;-139.68;100.00
10940;BME280;5522;42.696;23.494;2023-06-14T02:20:32;54024.69;;;-139.68;100.00
10940;BME280;5522;42.696;23.494;2023-06-14T02:22:59;53994.53;;;-139.68;100.00
10940;BME280;5522;42.696;23.494;2023-06-14T02:25:26;53998.56;;;-139.68;100.00
10940;BME280;5522;42.696;23.494;2023-06-14T02:27:54;53970.41;;;-139.68;100.00
10940;BME280;5522;42.696;23.494;2023-06-14T02:30:21;53988.50;;;-139.68;100.00
10940;BME280;5522;42.696;23.494;2023-06-14T02:32:49;53988.50;;;-139.68;100.00
10940;BME280;5522;42.696;23.494;2023-06-14T02:35:16;53988.50;;;-139.68;100.00
10940;BME280;5522;42.696;23.494;2023-06-14T02:37:43;54014.63;;;-139.68;100.00
10940;BME280;5522;42.696;23.494;2023-06-14T02:40:11;53986.50;;;-139.68;100.00
10940;BME280;5522;42.696;23.494;2023-06-14T02:42:38;53954.31;;;-139.68;100.00
10940;BME280;5522;42.696;23.494;2023-06-14T02:45:05;54000.56;;;-139.68;100.00
10940;BME280;5522;42.696;23.494;2023-06-14T02:47:32;53956.34;;;-139.68;100.00
10940;BME280;5522;42.696;23.494;2023-06-14T02:50:01;53966.38;;;-139.68;100.00
10940;BME280;5522;42.696;23.494;2023-06-14T02:52:28;53982.47;;;-139.68;100.00
10940;BME280;5522;42.696;23.494;2023-06-14T02:54:55;53972.41;;;-139.68;100.00
10940;BME280;5522;42.696;23.494;2023-06-14T02:57:22;53980.47;;;-139.68;100.00
10940;BME280;5522;42.696;23.494;2023-06-14T02:59:49;53978.47;;;-139.68;100.00
10940;BME280;5522;42.696;23.494;2023-06-14T03:02:17;54008.63;;;-139.68;100.00
10940;BME280;5522;42.696;23.494;2023-06-14T03:04:44;53954.31;;;-139.68;100.00
10940;BME280;5522;42.696;23.494;2023-06-14T03:07:13;53980.47;;;-139.68;100.00
10940;BME280;5522;42.696;23.494;2023-06-14T03:09:45;53956.34;;;-139.68;100.00
10940;BME280;5522;42.696;23.494;2023-06-14T03:12:12;53968.41;;;-139.68;100.00
10940;BME280;5522;42.696;23.494;2023-06-14T03:14:39;53990.50;;;-139.68;100.00
10940;BME280;5522;42.696;23.494;2023-06-14T03:17:07;54002.56;;;-139.68;100.00
10940;BME280;5522;42.696;23.494;2023-06-14T03:19:35;53990.50;;;-139.68;100.00
10940;BME280;5522;42.696;23.494;2023-06-14T03:22:02;53980.47;;;-139.68;100.00
10940;BME280;5522;42.696;23.494;2023-06-14T03:24:31;53990.50;;;-139.68;100.00
10940;BME280;5522;42.696;23.494;2023-06-14T03:27:01;53968.41;;;-139.68;100.00
10940;BME280;5522;42.696;23.494;2023-06-14T03:29:28;53948.31;;;-139.68;100.00
10940;BME280;5522;42.696;23.494;2023-06-14T03:31:57;53976.44;;;-139.68;100.00
10940;BME280;5522;42.696;23.494;2023-06-14T03:34:24;54002.56;;;-139.68;100.00
10940;BME280;5522;42.696;23.494;2023-06-14T03:36:51;53992.53;;;-139.68;100.00
10940;BME280;5522;42.696;23.494;2023-06-14T03:39:18;53988.50;;;-139.68;100.00
10940;BME280;5522;42.696;23.494;2023-06-14T03:41:46;54002.56;;;-139.68;100.00
10940;BME280;5522;42.696;23.494;2023-06-14T03:44:15;53970.41;;;-139.68;100.00
10940;BME280;5522;42.696;23.494;2023-06-14T03:46:42;53980.47;;;-139.68;100.00
10940;BME280;5522;42.696;23.494;2023-06-14T03:49:09;53948.31;;;-139.68;100.00
10940;BME280;5522;42.696;23.494;2023-06-14T03:51:37;54000.56;;;-139.68;100.00
10940;BME280;5522;42.696;23.494;2023-06-14T03:54:05;54016.66;;;-139.68;100.00
10940;BME280;5522;42.696;23.494;2023-06-14T03:56:32;53994.53;;;-139.68;100.00
10940;BME280;5522;42.696;23.494;2023-06-14T03:59:00;53996.53;;;-139.68;100.00
10940;BME280;5522;42.696;23.494;2023-06-14T04:01:27;54000.56;;;-139.68;100.00
10940;BME280;5522;42.696;23.494;2023-06-14T04:03:55;53982.47;;;-139.68;100.00
10940;BME280;5522;42.696;23.494;2023-06-14T04:06:23;53966.38;;;-139.68;100.00
10940;BME280;5522;42.696;23.494;2023-06-14T04:08:58;53994.53;;;-139.68;100.00
10940;BME280;5522;42.696;23.494;2023-06-14T04:11:29;53982.47;;;-139.68;100.00
10940;BME280;5522;42.696;23.494;2023-06-14T04:13:56;53994.53;;;-139.68;100.00
10940;BME280;5522;42.696;23.494;2023-06-14T04:16:24;53984.47;;;-139.68;100.00
10940;BME280;5522;42.696;23.494;2023-06-14T04:18:51;54008.63;;;-139.68;100.00
10940;BME280;5522;42.696;23.494;2023-06-14T04:21:18;54006.59;;;-139.68;100.00
10940;BME280;5522;42.696;23.494;2023-06-14T04:23:45;53952.31;;;-139.68;100.00
10940;BME280;5522;42.696;23.494;2023-06-14T04:26:12;53968.41;;;-139.68;100.00
10940;BME280;5522;42.696;23.494;2023-06-14T04:28:39;54010.63;;;-139.68;100.00
10940;BME280;5522;42.696;23.494;2023-06-14T04:31:07;53990.50;;;-139.68;100.00
10940;BME280;5522;42.696;23.494;2023-06-14T04:33:36;53976.44;;;-139.68;100.00
10940;BME280;5522;42.696;23.494;2023-06-14T04:36:09;53980.47;;;-139.68;100.00
10940;BME280;5522;42.696;23.494;2023-06-14T04:38:37;53938.25;;;-139.68;100.00
10940;BME280;5522;42.696;23.494;2023-06-14T04:41:04;54000.56;;;-139.68;100.00
10940;BME280;5522;42.696;23.494;2023-06-14T04:43:31;53970.41;;;-139.68;100.00
10940;BME280;5522;42.696;23.494;2023-06-14T04:46:03;54028.72;;;-139.68;100.00
10940;BME280;5522;42.696;23.494;2023-06-14T04:48:31;53956.34;;;-139.68;100.00
10940;BME280;5522;42.696;23.494;2023-06-14T04:50:59;53984.47;;;-139.68;100.00
10940;BME280;5522;42.696;23.494;2023-06-14T04:53:26;53970.41;;;-139.68;100.00
10940;BME280;5522;42.696;23.494;2023-06-14T04:55:54;53954.31;;;-139.68;100.00
10940;BME280;5522;42.696;23.494;2023-06-14T04:58:21;53992.53;;;-139.68;100.00
10940;BME280;5522;42.696;23.494;2023-06-14T05:00:48;53972.41;;;-139.68;100.00
10940;BME280;5522;42.696;23.494;2023-06-14T05:03:15;53984.47;;;-139.68;100.00
10940;BME280;5522;42.696;23.494;2023-06-14T05:05:43;53956.34;;;-139.68;100.00
10940;BME280;5522;42.696;23.494;2023-06-14T05:08:12;54008.63;;;-139.68;100.00
10940;BME280;5522;42.696;23.494;2023-06-14T05:10:39;53978.47;;;-139.68;100.00
10940;BME280;5522;42.696;23.494;2023-06-14T05:13:05;53994.53;;;-139.68;100.00
10940;BME280;5522;42.696;23.494;2023-06-14T05:15:32;53996.53;;;-139.68;100.00
10940;BME280;5522;42.696;23.494;2023-06-14T05:17:59;53982.47;;;-139.68;100.00
10940;BME280;5522;42.696;23.494;2023-06-14T05:20:26;53944.28;;;-139.68;100.00
10940;BME280;5522;42.696;23.494;2023-06-14T05:22:53;53954.31;;;-139.68;100.00
10940;BME280;5522;42.696;23.494;2023-06-14T05:25:21;53972.41;;;-139.68;100.00
10940;BME280;5522;42.696;23.494;2023-06-14T05:27:48;53980.47;;;-139.68;100.00
10940;BME280;5522;42.696;23.494;2023-06-14T05:30:15;53964.38;;;-139.68;100.00
10940;BME280;5522;42.696;23.494;2023-06-14T05:32:43;53964.38;;;-139.68;100.00
10940;BME280;5522;42.696;23.494;2023-06-14T05:35:10;53948.31;;;-139.68;100.00
10940;BME280;5522;42.696;23.494;2023-06-14T05:37:37;53992.53;;;-139.68;100.00
10940;BME280;5522;42.696;23.494;2023-06-14T05:40:04;53972.41;;;-139.68;100.00
10940;BME280;5522;42.696;23.494;2023-06-14T05:42:33;53960.38;;;-139.68;100.00
10940;BME280;5522;42.696;23.494;2023-06-14T05:45:00;53992.53;;;-139.68;100.00
10940;BME280;5522;42.696;23.494;2023-06-14T05:47:27;53952.31;;;-139.68;100.00
10940;BME280;5522;42.696;23.494;2023-06-14T05:49:54;53944.28;;;-139.68;100.00
10940;BME280;5522;42.696;23.494;2023-06-14T05:52:21;53968.41;;;-139.68;100.00
10940;BME280;5522;42.696;23.494;2023-06-14T05:54:47;53980.47;;;-139.68;100.00
10940;BME280;5522;42.696;23.494;2023-06-14T05:57:14;53930.22;;;-139.68;100.00
10940;BME280;5522;42.696;23.494;2023-06-14T05:59:43;53998.56;;;-139.68;100.00
10940;BME280;5522;42.696;23.494;2023-06-14T06:02:10;53988.50;;;-139.68;100.00
10940;BME280;5522;42.696;23.494;2023-06-14T06:04:37;53980.47;;;-139.68;100.00
10940;BME280;5522;42.696;23.494;2023-06-14T06:07:04;53960.38;;;-139.68;100.00
10940;BME280;5522;42.696;23.494;2023-06-14T06:09:31;53996.53;;;-139.68;100.00
10940;BME280;5522;42.696;23.494;2023-06-14T06:11:57;53948.31;;;-139.68;100.00
10940;BME280;5522;42.696;23.494;2023-06-14T06:14:24;53990.50;;;-139.68;100.00
10940;BME280;5522;42.696;23.494;2023-06-14T06:16:53;53940.25;;;-139.68;100.00
10940;BME280;5522;42.696;23.494;2023-06-14T06:19:20;53980.47;;;-139.68;100.00
10940;BME280;5522;42.696;23.494;2023-06-14T06:21:47;53982.47;;;-139.68;100.00
10940;BME280;5522;42.696;23.494;2023-06-14T06:24:14;53988.50;;;-139.68;100.00
10940;BME280;5522;42.696;23.494;2023-06-14T06:26:40;54000.56;;;-139.68;100.00
10940;BME280;5522;42.696;23.494;2023-06-14T06:29:07;53944.28;;;-139.68;100.00
10940;BME280;5522;42.696;23.494;2023-06-14T06:31:34;53960.38;;;-139.68;100.00
10940;BME280;5522;42.696;23.494;2023-06-14T06:34:02;53960.38;;;-139.68;100.00
10940;BME280;5522;42.696;23.494;2023-06-14T06:36:29;53980.47;;;-139.68;99.66
10940;BME280;5522;42.696;23.494;2023-06-14T06:38:56;53994.53;;;-139.68;98.99
10940;BME280;5522;42.696;23.494;2023-06-14T06:41:23;53972.41;;;-139.68;100.00
10940;BME280;5522;42.696;23.494;2023-06-14T06:43:49;53988.50;;;-139.68;97.61
10940;BME280;5522;42.696;23.494;2023-06-14T06:46:16;53994.53;;;-139.68;95.19
10940;BME280;5522;42.696;23.494;2023-06-14T06:48:44;53978.47;;;-139.68;92.45
10940;BME280;5522;42.696;23.494;2023-06-14T06:51:12;53948.31;;;-139.68;95.91
10940;BME280;5522;42.696;23.494;2023-06-14T06:53:42;53958.34;;;-139.68;97.36
10940;BME280;5522;42.696;23.494;2023-06-14T06:56:09;53988.50;;;-139.68;92.27
10940;BME280;5522;42.696;23.494;2023-06-14T06:58:36;53996.53;;;-139.68;87.99
10940;BME280;5522;42.696;23.494;2023-06-14T07:01:02;53958.34;;;-139.68;79.28
10940;BME280;5522;42.696;23.494;2023-06-14T07:03:29;53964.38;;;-139.68;78.38
10940;BME280;5522;42.696;23.494;2023-06-14T07:05:56;53980.47;;;-139.68;70.82
10940;BME280;5522;42.696;23.494;2023-06-14T07:08:24;53962.38;;;-139.68;73.07
10940;BME280;5522;42.696;23.494;2023-06-14T07:10:52;53942.25;;;-139.68;67.28
10940;BME280;5522;42.696;23.494;2023-06-14T07:13:19;53996.53;;;-139.68;67.06
10940;BME280;5522;42.696;23.494;2023-06-14T07:15:46;53996.53;;;-139.68;71.26
10940;BME280;5522;42.696;23.494;2023-06-14T07:18:13;54004.59;;;-139.68;66.78
10940;BME280;5522;42.696;23.494;2023-06-14T07:20:40;53986.50;;;-139.68;76.17
10940;BME280;5522;42.696;23.494;2023-06-14T07:23:08;53956.34;;;-139.68;73.64
10940;BME280;5522;42.696;23.494;2023-06-14T07:25:36;53970.41;;;-139.68;76.11
10940;BME280;5522;42.696;23.494;2023-06-14T07:28:03;54008.63;;;-139.68;68.47
10940;BME280;5522;42.696;23.494;2023-06-14T07:30:30;53984.47;;;-139.68;66.90
10940;BME280;5522;42.696;23.494;2023-06-14T07:32:56;53996.53;;;-139.68;76.48
10940;BME280;5522;42.696;23.494;2023-06-14T07:35:23;53980.47;;;-139.68;78.44
10940;BME280;5522;42.696;23.494;2023-06-14T07:37:50;54010.63;;;-139.68;65.75
10940;BME280;5522;42.696;23.494;2023-06-14T07:40:17;53976.44;;;-139.68;65.95
10940;BME280;5522;42.696;23.494;2023-06-14T07:42:45;53976.44;;;-139.68;64.21
10940;BME280;5522;42.696;23.494;2023-06-14T07:45:13;53952.31;;;-139.68;55.59
10940;BME280;5522;42.696;23.494;2023-06-14T07:47:40;53974.44;;;-139.68;58.19
10940;BME280;5522;42.696;23.494;2023-06-14T07:50:08;53976.44;;;-139.68;56.72
10940;BME280;5522;42.696;23.494;2023-06-14T07:52:35;53970.41;;;-139.68;52.74
10940;BME280;5522;42.696;23.494;2023-06-14T07:55:01;53952.31;;;-139.68;51.43
10940;BME280;5522;42.696;23.494;2023-06-14T07:57:28;53976.44;;;-139.68;53.02
10940;BME280;5522;42.696;23.494;2023-06-14T07:59:56;53974.44;;;-139.68;50.03
10940;BME280;5522;42.696;23.494;2023-06-14T08:02:24;53988.50;;;-139.68;44.98
10940;BME280;5522;42.696;23.494;2023-06-14T08:04:50;53982.47;;;-139.68;42.36
10940;BME280;5522;42.696;23.494;2023-06-14T08:07:18;53976.44;;;-139.68;41.11
10940;BME280;5522;42.696;23.494;2023-06-14T08:09:45;53976.44;;;-139.68;38.78
10940;BME280;5522;42.696;23.494;2023-06-14T08:12:12;53976.44;;;-139.68;39.78
10940;BME280;5522;42.696;23.494;2023-06-14T08:14:39;54024.69;;;-139.68;35.18
10940;BME280;5522;42.696;23.494;2023-06-14T08:17:07;53984.47;;;-139.68;35.12
10940;BME280;5522;42.696;23.494;2023-06-14T08:19:34;53978.47;;;-139.68;36.80
10940;BME280;5522;42.696;23.494;2023-06-14T08:22:02;53980.47;;;-139.68;34.94
10940;BME280;5522;42.696;23.494;2023-06-14T08:24:29;53936.22;;;-139.68;34.33
10940;BME280;5522;42.696;23.494;2023-06-14T08:26:56;53942.25;;;-139.68;32.92
10940;BME280;5522;42.696;23.494;2023-06-14T08:29:23;53978.47;;;-139.68;32.61
10940;BME280;5522;42.696;23.494;2023-06-14T08:31:49;53976.44;;;-139.68;34.65
10940;BME280;5522;42.696;23.494;2023-06-14T08:34:18;54028.72;;;-139.68;34.40
10940;BME280;5522;42.696;23.494;2023-06-14T08:36:45;53972.41;;;-139.68;35.56
10940;BME280;5522;42.696;23.494;2023-06-14T08:39:11;54016.66;;;-139.68;36.01
10940;BME280;5522;42.696;23.494;2023-06-14T08:41:38;53984.47;;;-139.68;37.85
10940;BME280;5522;42.696;23.494;2023-06-14T08:44:05;54016.66;;;-139.68;42.62
10940;BME280;5522;42.696;23.494;2023-06-14T08:46:33;54056.84;;;-139.68;43.45
10940;BME280;5522;42.696;23.494;2023-06-14T08:49:01;54014.63;;;-139.68;42.36
10940;BME280;5522;42.696;23.494;2023-06-14T08:51:31;54016.66;;;-139.68;42.11
10940;BME280;5522;42.696;23.494;2023-06-14T08:54:00;54006.59;;;-139.68;38.61
10940;BME280;5522;42.696;23.494;2023-06-14T08:56:27;53972.41;;;-139.68;34.40
10940;BME280;5522;42.696;23.494;2023-06-14T08:58:55;53952.31;;;-139.68;33.67
10940;BME280;5522;42.696;23.494;2023-06-14T09:01:23;53952.31;;;-139.68;33.71
10940;BME280;5522;42.696;23.494;2023-06-14T09:03:50;53976.44;;;-139.68;34.52
10940;BME280;5522;42.696;23.494;2023-06-14T09:06:17;53928.19;;;-139.68;33.15
10940;BME280;5522;42.696;23.494;2023-06-14T09:08:46;53932.22;;;-139.68;31.55
10940;BME280;5522;42.696;23.494;2023-06-14T09:11:14;53956.34;;;-139.68;31.43
10940;BME280;5522;42.696;23.494;2023-06-14T09:13:44;53962.38;;;-139.68;29.06
10940;BME280;5522;42.696;23.494;2023-06-14T09:16:11;53928.19;;;-139.68;27.04
10940;BME280;5522;42.696;23.494;2023-06-14T09:18:39;53916.13;;;-139.68;29.54
10940;BME280;5522;42.696;23.494;2023-06-14T09:21:07;53910.09;;;-139.68;28.98
10940;BME280;5522;42.696;23.494;2023-06-14T09:23:36;53930.22;;;-139.68;28.62
10940;BME280;5522;42.696;23.494;2023-06-14T09:26:08;53938.25;;;-139.68;29.77
10940;BME280;5522;42.696;23.494;2023-06-14T09:28:35;53992.53;;;-139.68;31.06
10940;BME280;5522;42.696;23.494;2023-06-14T09:31:02;53984.47;;;-139.68;31.66
10940;BME280;5522;42.696;23.494;2023-06-14T09:33:30;53940.25;;;-139.68;32.22
10940;BME280;5522;42.696;23.494;2023-06-14T09:35:57;53930.22;;;-139.68;30.50
10940;BME280;5522;42.696;23.494;2023-06-14T09:38:24;53948.31;;;-139.68;30.59
10940;BME280;5522;42.696;23.494;2023-06-14T09:40:52;53980.47;;;-139.68;31.89
10940;BME280;5522;42.696;23.494;2023-06-14T09:43:20;53974.44;;;-139.68;29.92
10940;BME280;5522;42.696;23.494;2023-06-14T09:45:47;53972.41;;;-139.68;30.80
10940;BME280;5522;42.696;23.494;2023-06-14T09:48:15;53950.31;;;-139.68;31.64
10940;BME280;5522;42.696;23.494;2023-06-14T09:50:45;53984.47;;;-139.68;33.19
10940;BME280;5522;42.696;23.494;2023-06-14T09:53:13;54008.63;;;-139.68;34.27
10940;BME280;5522;42.696;23.494;2023-06-14T09:55:41;54024.69;;;-139.68;35.39
10940;BME280;5522;42.696;23.494;2023-06-14T09:58:09;54006.59;;;-139.68;36.60
10940;BME280;5522;42.696;23.494;2023-06-14T10:00:39;54030.72;;;-139.68;37.01
10940;BME280;5522;42.696;23.494;2023-06-14T10:03:11;53988.50;;;-139.68;39.68
10940;BME280;5522;42.696;23.494;2023-06-14T10:05:41;53982.47;;;-139.68;42.35
10940;BME280;5522;42.696;23.494;2023-06-14T10:08:08;54024.69;;;-139.68;39.34
10940;BME280;5522;42.696;23.494;2023-06-14T10:10:38;53984.47;;;-139.68;42.63
10940;BME280;5522;42.696;23.494;2023-06-14T10:13:06;53992.53;;;-139.68;44.15
10940;BME280;5522;42.696;23.494;2023-06-14T10:15:41;53972.41;;;-139.68;44.25
10940;BME280;5522;42.696;23.494;2023-06-14T10:18:18;54030.72;;;-139.68;40.89
10940;BME280;5522;42.696;23.494;2023-06-14T10:20:54;54016.66;;;-139.68;41.70
10940;BME280;5522;42.696;23.494;2023-06-14T10:23:25;54052.84;;;-139.68;43.14
10940;BME280;5522;42.696;23.494;2023-06-14T10:25:54;53998.56;;;-139.68;42.83
10940;BME280;5522;42.696;23.494;2023-06-14T10:28:22;53982.47;;;-139.68;45.31
10940;BME280;5522;42.696;23.494;2023-06-14T10:31:08;54008.63;;;-139.68;54.75
10940;BME280;5522;42.696;23.494;2023-06-14T10:33:37;54016.66;;;-139.68;49.60
10940;BME280;5522;42.696;23.494;2023-06-14T10:36:27;54012.63;;;-139.68;47.74
10940;BME280;5522;42.696;23.494;2023-06-14T10:39:00;53992.53;;;-139.68;45.25
10940;BME280;5522;42.696;23.494;2023-06-14T10:41:29;54016.66;;;-139.68;43.09
10940;BME280;5522;42.696;23.494;2023-06-14T10:44:38;54024.69;;;-139.68;44.12
10940;BME280;5522;42.696;23.494;2023-06-14T10:47:20;53988.50;;;-139.68;44.84
10940;BME280;5522;42.696;23.494;2023-06-14T10:49:50;53992.53;;;-139.68;42.55
10940;BME280;5522;42.696;23.494;2023-06-14T10:52:22;54012.63;;;-139.68;43.52
10940;BME280;5522;42.696;23.494;2023-06-14T10:55:06;53998.56;;;-139.68;43.65
10940;BME280;5522;42.696;23.494;2023-06-14T10:57:35;53984.47;;;-139.68;45.54
10940;BME280;5522;42.696;23.494;2023-06-14T11:00:03;53970.41;;;-139.68;49.54
10940;BME280;5522;42.696;23.494;2023-06-14T11:02:55;53996.53;;;-139.68;49.11
10940;BME280;5522;42.696;23.494;2023-06-14T11:05:30;53972.41;;;-139.68;46.23
10940;BME280;5522;42.696;23.494;2023-06-14T11:08:16;53980.47;;;-139.68;53.57
10940;BME280;5522;42.696;23.494;2023-06-14T11:10:45;53992.53;;;-139.68;47.71
10940;BME280;5522;42.696;23.494;2023-06-14T11:13:12;53986.50;;;-139.68;51.21
10940;BME280;5522;42.696;23.494;2023-06-14T11:15:44;54012.63;;;-139.68;48.85
10940;BME280;5522;42.696;23.494;2023-06-14T11:18:13;54002.56;;;-139.68;53.87
10940;BME280;5522;42.696;23.494;2023-06-14T11:20:42;53978.47;;;-139.68;48.27
10940;BME280;5522;42.696;23.494;2023-06-14T11:23:09;53976.44;;;-139.68;53.88
10940;BME280;5522;42.696;23.494;2023-06-14T11:25:35;54010.63;;;-139.68;49.69
10940;BME280;5522;42.696;23.494;2023-06-14T11:28:02;53988.50;;;-139.68;45.99
10940;BME280;5522;42.696;23.494;2023-06-14T11:30:29;53968.41;;;-139.68;49.03
10940;BME280;5522;42.696;23.494;2023-06-14T11:32:57;53932.22;;;-139.68;46.00
10940;BME280;5522;42.696;23.494;2023-06-14T11:35:25;53978.47;;;-139.68;46.79
10940;BME280;5522;42.696;23.494;2023-06-14T11:37:53;53972.41;;;-139.68;52.60
10940;BME280;5522;42.696;23.494;2023-06-14T11:40:23;53996.53;;;-139.68;47.80
10940;BME280;5522;42.696;23.494;2023-06-14T11:42:58;53960.38;;;-139.68;52.07
10940;BME280;5522;42.696;23.494;2023-06-14T11:45:24;54000.56;;;-139.68;50.50
10940;BME280;5522;42.696;23.494;2023-06-14T11:47:54;53988.50;;;-139.68;56.42
10940;BME280;5522;42.696;23.494;2023-06-14T11:50:21;53964.38;;;-139.68;59.43
10940;BME280;5522;42.696;23.494;2023-06-14T11:52:53;53992.53;;;-139.68;48.38
10940;BME280;5522;42.696;23.494;2023-06-14T11:55:21;53976.44;;;-139.68;48.55
10940;BME280;5522;42.696;23.494;2023-06-14T11:57:48;53968.41;;;-139.68;47.50
10940;BME280;5522;42.696;23.494;2023-06-14T12:00:16;53950.31;;;-139.68;49.53
10940;BME280;5522;42.696;23.494;2023-06-14T12:02:52;53984.47;;;-139.68;47.04
10940;BME280;5522;42.696;23.494;2023-06-14T12:05:21;53940.25;;;-139.68;48.22
10940;BME280;5522;42.696;23.494;2023-06-14T12:07:48;54020.66;;;-139.68;49.86
10940;BME280;5522;42.696;23.494;2023-06-14T12:10:17;53948.31;;;-139.68;47.62
10940;BME280;5522;42.696;23.494;2023-06-14T12:12:44;53962.38;;;-139.68;47.21
10940;BME280;5522;42.696;23.494;2023-06-14T12:15:11;53968.41;;;-139.68;48.52
10940;BME280;5522;42.696;23.494;2023-06-14T12:17:38;53928.19;;;-139.68;52.58
10940;BME280;5522;42.696;23.494;2023-06-14T12:20:08;53988.50;;;-139.68;49.17
10940;BME280;5522;42.696;23.494;2023-06-14T12:22:39;53958.34;;;-139.68;44.99
10940;BME280;5522;42.696;23.494;2023-06-14T12:25:06;53962.38;;;-139.68;49.35
10940;BME280;5522;42.696;23.494;2023-06-14T12:27:39;53992.53;;;-139.68;44.72
10940;BME280;5522;42.696;23.494;2023-06-14T12:30:07;54006.59;;;-139.68;46.14
10940;BME280;5522;42.696;23.494;2023-06-14T12:32:35;53978.47;;;-139.68;46.34
10940;BME280;5522;42.696;23.494;2023-06-14T12:35:02;53998.56;;;-139.68;46.78
10940;BME280;5522;42.696;23.494;2023-06-14T12:37:29;53952.31;;;-139.68;44.34
10940;BME280;5522;42.696;23.494;2023-06-14T12:39:56;53976.44;;;-139.68;43.83
10940;BME280;5522;42.696;23.494;2023-06-14T12:42:22;53998.56;;;-139.68;47.91
10940;BME280;5522;42.696;23.494;2023-06-14T12:44:51;53948.31;;;-139.68;42.33
10940;BME280;5522;42.696;23.494;2023-06-14T12:47:17;53958.34;;;-139.68;41.87
10940;BME280;5522;42.696;23.494;2023-06-14T12:49:44;53978.47;;;-139.68;44.23